Station History

Weather Underground - logo

Station Historical Data
Daily Summary for January 13, 2018 Units:  English    Metric   Both
« Previous Day
Next Day »
Daily Weekly Monthly Yearly Custom
  High: Low: Average:
Temperature: 50.9 °F 47.4 °F 48.9 °F
Dew Point: 50.1 °F 46.5 °F 48.1 °F
Humidity: 97 % 95 % 97 %
Wind Speed: 3.0 mph 0.0 mph 0.5 mph
Wind Gust: 3.0 mph - -
Wind:- - West
Pressure: 30.33 in 30.20 in -
Precipitation: 0.01 in    
Historical Graphs
 
 
Tabular Data for January 13, 2018
Time Temperature Dew Point Pressure Wind Wind Speed Wind Gust Humidity Rainfall Rate (Hourly)
00:04 49.7 °F 48.3 °F 30.29 in Calm     95 % 0.00 in
00:22 48.6 °F 47.2 °F 30.28 in NW 1.2 mph 1.2 mph 95 % 0.00 in
00:32 48.2 °F 46.8 °F 30.29 in NW 2.3 mph 2.3 mph 95 % 0.00 in
00:45 47.9 °F 46.8 °F 30.28 in NW 2.3 mph 2.3 mph 96 % 0.00 in
00:51 47.7 °F 46.6 °F 30.28 in NW 3.0 mph 3.0 mph 96 % 0.00 in
00:56 47.6 °F 46.5 °F 30.28 in NW 2.3 mph 2.3 mph 96 % 0.00 in
01:02 47.6 °F 46.5 °F 30.28 in NNW 1.2 mph 1.2 mph 96 % 0.00 in
01:15 47.6 °F 46.5 °F 30.28 in WNW 2.3 mph 2.3 mph 96 % 0.00 in
01:27 47.6 °F 46.5 °F 30.28 in NW 1.2 mph 1.2 mph 96 % 0.00 in
01:40 47.6 °F 46.8 °F 30.28 in NNW 2.3 mph 2.3 mph 97 % 0.00 in
01:52 47.6 °F 46.8 °F 30.28 in Calm     97 % 0.00 in
01:57 47.7 °F 46.9 °F 30.28 in Calm     97 % 0.00 in
02:06 47.8 °F 47.0 °F 30.28 in Calm     97 % 0.00 in
02:11 48.0 °F 47.2 °F 30.28 in Calm     97 % 0.00 in
02:23 48.0 °F 47.2 °F 30.28 in NW 1.2 mph 1.2 mph 97 % 0.00 in
02:34 48.0 °F 47.2 °F 30.28 in NW 1.2 mph 1.2 mph 97 % 0.00 in
02:47 47.9 °F 47.1 °F 30.29 in WNW 1.2 mph 1.2 mph 97 % 0.00 in
02:54 48.1 °F 47.3 °F 30.28 in NNW 1.2 mph 1.2 mph 97 % 0.00 in
03:10 48.2 °F 47.4 °F 30.28 in NNW 1.0 mph 1.0 mph 97 % 0.00 in
03:40 48.5 °F 47.7 °F 30.28 in NNW 2.3 mph 2.3 mph 97 % 0.00 in
03:46 48.5 °F 47.7 °F 30.28 in Calm     97 % 0.00 in
03:53 48.6 °F 47.8 °F 30.28 in Calm     97 % 0.00 in
04:03 48.5 °F 47.7 °F 30.28 in NW 2.3 mph 2.3 mph 97 % 0.00 in
04:17 48.4 °F 47.6 °F 30.27 in NW 1.2 mph 1.2 mph 97 % 0.00 in
04:29 48.3 °F 47.5 °F 30.27 in Calm     97 % 0.00 in
04:43 48.3 °F 47.5 °F 30.27 in Calm     97 % 0.00 in
04:54 48.1 °F 47.3 °F 30.27 in WNW 2.3 mph 2.3 mph 97 % 0.00 in
05:04 48.0 °F 47.2 °F 30.27 in WNW 1.2 mph   97 % 0.00 in
05:24 47.9 °F 47.1 °F 30.27 in NW 2.3 mph 2.3 mph 97 % 0.00 in
05:31 47.9 °F 47.1 °F 30.27 in WNW 1.2 mph   97 % 0.00 in
05:40 47.9 °F 47.1 °F 30.27 in NW 1.2 mph 1.2 mph 97 % 0.00 in
05:46 48.0 °F 47.2 °F 30.27 in Calm     97 % 0.00 in
05:53 47.9 °F 47.1 °F 30.27 in NW 2.3 mph 2.3 mph 97 % 0.00 in
06:08 47.8 °F 47.0 °F 30.27 in Calm     97 % 0.00 in
06:16 47.9 °F 47.1 °F 30.27 in Calm     97 % 0.00 in
06:23 47.8 °F 47.0 °F 30.28 in Calm     97 % 0.00 in
06:36 47.9 °F 47.1 °F 30.28 in Calm     97 % 0.00 in
06:46 47.9 °F 47.1 °F 30.28 in Calm     97 % 0.00 in
06:59 47.9 °F 47.1 °F 30.28 in Calm     97 % 0.00 in
07:20 47.7 °F 46.9 °F 30.29 in Calm     97 % 0.00 in
07:28 47.7 °F 46.9 °F 30.29 in Calm     97 % 0.00 in
07:33 47.6 °F 46.8 °F 30.30 in NNE 1.2 mph 1.2 mph 97 % 0.00 in
07:48 47.4 °F 46.6 °F 30.30 in NNE 1.2 mph   97 % 0.00 in
07:53 47.4 °F 46.6 °F 30.30 in Calm     97 % 0.00 in
08:09 47.4 °F 46.6 °F 30.31 in Calm     97 % 0.00 in
08:25 47.6 °F 46.8 °F 30.31 in Calm     97 % 0.00 in
08:30 47.6 °F 46.8 °F 30.31 in Calm     97 % 0.01 in
08:36 47.6 °F 46.8 °F 30.31 in Calm   0.1 mph 97 % 0.01 in
08:51 47.7 °F 46.9 °F 30.31 in Calm     97 % 0.01 in
09:16 47.7 °F 46.9 °F 30.32 in Calm     97 % 0.01 in
09:25 48.1 °F 47.3 °F 30.32 in Calm     97 % 0.01 in
09:30 48.1 °F 47.3 °F 30.32 in Calm     97 % 0.00 in
09:38 48.3 °F 47.5 °F 30.32 in Calm     97 % 0.00 in
09:45 48.5 °F 47.7 °F 30.32 in Calm     97 % 0.00 in
09:59 48.4 °F 47.6 °F 30.32 in Calm     97 % 0.00 in
10:06 48.6 °F 47.8 °F 30.33 in Calm     97 % 0.00 in
10:15 48.8 °F 48.0 °F 30.32 in NNE 1.0 mph 1.0 mph 97 % 0.00 in
10:44 49.1 °F 48.3 °F 30.32 in Calm     97 % 0.00 in
10:51 49.0 °F 48.2 °F 30.31 in NNE 1.2 mph   97 % 0.00 in
10:56 48.8 °F 48.0 °F 30.32 in Calm     97 % 0.00 in
11:01 49.0 °F 48.2 °F 30.31 in Calm     97 % 0.00 in
11:14 49.2 °F 48.4 °F 30.31 in Calm     97 % 0.00 in
11:19 49.4 °F 48.6 °F 30.30 in NNE 1.2 mph   97 % 0.00 in
11:26 49.4 °F 48.6 °F 30.30 in Calm     97 % 0.00 in
11:33 49.4 °F 48.6 °F 30.29 in Calm     97 % 0.00 in
11:44 49.8 °F 49.0 °F 30.28 in Calm     97 % 0.00 in
12:03 49.7 °F 48.9 °F 30.27 in Calm     97 % 0.00 in
12:14 50.0 °F 49.2 °F 30.27 in Calm     97 % 0.00 in
12:19 49.9 °F 49.1 °F 30.26 in Calm     97 % 0.00 in
12:29 50.1 °F 49.3 °F 30.26 in NW 2.3 mph 2.3 mph 97 % 0.00 in
12:37 50.0 °F 49.2 °F 30.25 in Calm     97 % 0.00 in
12:53 50.2 °F 49.4 °F 30.25 in Calm     97 % 0.00 in
13:03 49.9 °F 49.1 °F 30.24 in West 1.2 mph   97 % 0.00 in
13:36 50.5 °F 49.7 °F 30.23 in Calm     97 % 0.00 in
13:43 50.6 °F 49.8 °F 30.23 in Calm     97 % 0.00 in
13:50 50.7 °F 49.9 °F 30.23 in Calm     97 % 0.00 in
13:59 50.9 °F 50.1 °F 30.23 in NNW 1.2 mph   97 % 0.00 in
14:05 50.8 °F 50.0 °F 30.22 in Calm     97 % 0.00 in
14:13 50.8 °F 50.0 °F 30.22 in Calm     97 % 0.00 in
14:19 50.7 °F 49.9 °F 30.22 in Calm     97 % 0.00 in
14:27 50.6 °F 49.8 °F 30.22 in WSW 1.2 mph 1.2 mph 97 % 0.00 in
14:33 50.5 °F 49.7 °F 30.22 in Calm     97 % 0.00 in
14:57 50.7 °F 49.9 °F 30.21 in Calm     97 % 0.00 in
15:05 50.6 °F 49.8 °F 30.21 in NW 1.2 mph 1.2 mph 97 % 0.00 in
15:18 50.5 °F 49.7 °F 30.20 in NW 1.2 mph   97 % 0.00 in
15:44 50.3 °F 49.5 °F 30.21 in Calm     97 % 0.00 in
15:59 50.2 °F 49.4 °F 30.21 in West 1.2 mph 1.2 mph 97 % 0.00 in
16:07 50.2 °F 49.4 °F 30.21 in Calm     97 % 0.00 in
16:14 50.3 °F 49.5 °F 30.21 in West 1.2 mph   97 % 0.00 in
16:24 50.4 °F 49.6 °F 30.21 in Calm     97 % 0.00 in
16:39 50.3 °F 49.5 °F 30.21 in Calm     97 % 0.00 in
16:52 50.3 °F 49.5 °F 30.22 in Calm     97 % 0.00 in
16:59 50.2 °F 49.4 °F 30.22 in ESE 1.2 mph   97 % 0.00 in
17:20 50.0 °F 49.2 °F 30.21 in SE 1.2 mph 1.2 mph 97 % 0.00 in
17:42 49.9 °F 49.1 °F 30.21 in Calm     97 % 0.00 in
17:53 49.8 °F 49.0 °F 30.21 in Calm     97 % 0.00 in
18:06 49.8 °F 49.0 °F 30.21 in Calm     97 % 0.00 in
18:11 49.8 °F 49.0 °F 30.21 in Calm     97 % 0.00 in
18:17 49.8 °F 49.0 °F 30.22 in Calm     97 % 0.00 in
18:24 49.9 °F 49.1 °F 30.22 in WNW 1.2 mph   97 % 0.00 in
18:53 49.6 °F 48.8 °F 30.22 in Calm     97 % 0.00 in
19:01 49.7 °F 48.9 °F 30.22 in Calm     97 % 0.00 in
19:39 49.3 °F 48.5 °F 30.23 in Calm     97 % 0.00 in
19:46 49.3 °F 48.5 °F 30.23 in Calm     97 % 0.00 in
19:51 49.4 °F 48.6 °F 30.23 in Calm     97 % 0.00 in
20:01 49.3 °F 48.5 °F 30.23 in Calm     97 % 0.00 in
20:12 49.3 °F 48.5 °F 30.23 in Calm     97 % 0.00 in
20:21 49.2 °F 48.4 °F 30.24 in Calm     97 % 0.00 in
20:32 49.1 °F 48.3 °F 30.24 in Calm     97 % 0.00 in
20:58 49.1 °F 48.3 °F 30.24 in Calm     97 % 0.00 in
21:05 49.0 °F 48.2 °F 30.24 in Calm     97 % 0.00 in
21:13 49.0 °F 48.2 °F 30.24 in Calm     97 % 0.00 in
21:24 49.0 °F 48.2 °F 30.24 in Calm     97 % 0.00 in
21:29 49.0 °F 48.2 °F 30.24 in Calm     97 % 0.00 in
21:37 49.0 °F 48.2 °F 30.24 in Calm     97 % 0.00 in
22:08 49.1 °F 48.3 °F 30.24 in NW 1.2 mph   97 % 0.00 in
22:27 48.9 °F 48.1 °F 30.24 in Calm     97 % 0.00 in
22:38 48.9 °F 48.1 °F 30.24 in Calm     97 % 0.00 in
22:47 48.9 °F 48.1 °F 30.25 in Calm     97 % 0.00 in
22:58 48.8 °F 48.0 °F 30.25 in Calm     97 % 0.00 in
23:04 48.8 °F 48.0 °F 30.25 in Calm     97 % 0.00 in
23:11 48.7 °F 47.9 °F 30.25 in NW 1.2 mph 1.2 mph 97 % 0.00 in
23:20 48.5 °F 47.7 °F 30.25 in Calm     97 % 0.00 in
23:27 48.5 °F 47.7 °F 30.25 in Calm     97 % 0.00 in
23:32 48.5 °F 47.7 °F 30.25 in Calm     97 % 0.00 in
23:39 48.5 °F 47.7 °F 30.25 in Calm     97 % 0.00 in
23:45 48.5 °F 47.7 °F 30.25 in Calm     97 % 0.00 in
23:50 48.5 °F 47.7 °F 30.25 in Calm     97 % 0.00 in
23:58 48.5 °F 47.7 °F 30.24 in Calm     97 % 0.00 in
Park Place, Exeter, Tulare County, California, USA
Compliments of Weather Underground - 2 mb